sensor_id;sensor_type;location;lat;lon;timestamp;P1;durP1;ratioP1;P2;durP2;ratioP2
5937;SDS011;2994;51.220;4.412;2022-09-09T00:00:22;4.30;;;2.50;;
5937;SDS011;2994;51.220;4.412;2022-09-09T00:05:35;3.43;;;1.80;;
5937;SDS011;2994;51.220;4.412;2022-09-09T00:08:07;2.97;;;2.57;;
5937;SDS011;2994;51.220;4.412;2022-09-09T00:10:42;3.33;;;2.10;;
5937;SDS011;2994;51.220;4.412;2022-09-09T00:19:00;6.80;;;2.33;;
5937;SDS011;2994;51.220;4.412;2022-09-09T00:21:34;4.90;;;2.63;;
5937;SDS011;2994;51.220;4.412;2022-09-09T00:24:14;4.07;;;2.50;;
5937;SDS011;2994;51.220;4.412;2022-09-09T00:26:51;3.50;;;2.37;;
5937;SDS011;2994;51.220;4.412;2022-09-09T00:31:59;3.10;;;2.50;;
5937;SDS011;2994;51.220;4.412;2022-09-09T00:34:34;2.83;;;2.40;;
5937;SDS011;2994;51.220;4.412;2022-09-09T00:37:01;3.27;;;1.93;;
5937;SDS011;2994;51.220;4.412;2022-09-09T00:39:31;3.00;;;2.70;;
5937;SDS011;2994;51.220;4.412;2022-09-09T00:44:53;5.40;;;2.50;;
5937;SDS011;2994;51.220;4.412;2022-09-09T00:50:43;2.90;;;2.00;;
5937;SDS011;2994;51.220;4.412;2022-09-09T00:55:44;5.33;;;2.73;;
5937;SDS011;2994;51.220;4.412;2022-09-09T00:58:13;3.40;;;1.97;;
5937;SDS011;2994;51.220;4.412;2022-09-09T01:00:57;2.93;;;2.23;;
5937;SDS011;2994;51.220;4.412;2022-09-09T01:11:36;2.87;;;1.77;;
5937;SDS011;2994;51.220;4.412;2022-09-09T01:14:37;4.90;;;2.10;;
5937;SDS011;2994;51.220;4.412;2022-09-09T01:27:39;2.33;;;2.07;;
5937;SDS011;2994;51.220;4.412;2022-09-09T01:30:09;3.27;;;2.23;;
5937;SDS011;2994;51.220;4.412;2022-09-09T01:32:45;2.70;;;1.83;;
5937;SDS011;2994;51.220;4.412;2022-09-09T01:35:16;2.57;;;2.27;;
5937;SDS011;2994;51.220;4.412;2022-09-09T01:37:49;5.60;;;2.63;;
5937;SDS011;2994;51.220;4.412;2022-09-09T01:40:14;4.67;;;2.33;;
5937;SDS011;2994;51.220;4.412;2022-09-09T01:42:40;3.83;;;2.77;;
5937;SDS011;2994;51.220;4.412;2022-09-09T01:45:06;3.20;;;2.17;;
5937;SDS011;2994;51.220;4.412;2022-09-09T01:47:31;3.50;;;2.03;;
5937;SDS011;2994;51.220;4.412;2022-09-09T01:49:57;3.40;;;2.20;;
5937;SDS011;2994;51.220;4.412;2022-09-09T01:52:24;4.73;;;3.40;;
5937;SDS011;2994;51.220;4.412;2022-09-09T01:54:49;4.83;;;2.93;;
5937;SDS011;2994;51.220;4.412;2022-09-09T01:57:16;5.13;;;2.90;;
5937;SDS011;2994;51.220;4.412;2022-09-09T01:59:53;5.60;;;2.73;;
5937;SDS011;2994;51.220;4.412;2022-09-09T02:05:20;2.60;;;2.40;;
5937;SDS011;2994;51.220;4.412;2022-09-09T02:08:11;4.80;;;3.00;;
5937;SDS011;2994;51.220;4.412;2022-09-09T02:10:45;2.97;;;2.20;;
5937;SDS011;2994;51.220;4.412;2022-09-09T02:13:12;3.10;;;2.33;;
5937;SDS011;2994;51.220;4.412;2022-09-09T02:18:11;4.50;;;2.70;;
5937;SDS011;2994;51.220;4.412;2022-09-09T02:20:40;3.00;;;2.67;;
5937;SDS011;2994;51.220;4.412;2022-09-09T02:23:08;2.83;;;2.23;;
5937;SDS011;2994;51.220;4.412;2022-09-09T02:25:36;2.80;;;2.50;;
5937;SDS011;2994;51.220;4.412;2022-09-09T02:28:02;5.43;;;2.53;;
5937;SDS011;2994;51.220;4.412;2022-09-09T02:30:31;4.67;;;2.60;;
5937;SDS011;2994;51.220;4.412;2022-09-09T02:32:59;2.77;;;2.30;;
5937;SDS011;2994;51.220;4.412;2022-09-09T02:35:28;5.33;;;2.27;;
5937;SDS011;2994;51.220;4.412;2022-09-09T02:37:56;4.37;;;2.27;;
5937;SDS011;2994;51.220;4.412;2022-09-09T02:40:26;4.13;;;2.03;;
5937;SDS011;2994;51.220;4.412;2022-09-09T02:42:51;2.77;;;2.03;;
5937;SDS011;2994;51.220;4.412;2022-09-09T02:45:20;2.80;;;1.97;;
5937;SDS011;2994;51.220;4.412;2022-09-09T02:47:51;2.77;;;2.00;;
5937;SDS011;2994;51.220;4.412;2022-09-09T02:58:23;6.43;;;2.43;;
5937;SDS011;2994;51.220;4.412;2022-09-09T03:00:50;4.60;;;2.97;;
5937;SDS011;2994;51.220;4.412;2022-09-09T03:03:16;6.13;;;2.00;;
5937;SDS011;2994;51.220;4.412;2022-09-09T03:05:43;3.93;;;1.80;;
5937;SDS011;2994;51.220;4.412;2022-09-09T03:08:09;6.43;;;2.60;;
5937;SDS011;2994;51.220;4.412;2022-09-09T03:10:35;2.43;;;1.90;;
5937;SDS011;2994;51.220;4.412;2022-09-09T03:13:02;3.60;;;2.87;;
5937;SDS011;2994;51.220;4.412;2022-09-09T03:15:29;3.07;;;2.30;;
5937;SDS011;2994;51.220;4.412;2022-09-09T03:17:56;4.43;;;2.50;;
5937;SDS011;2994;51.220;4.412;2022-09-09T03:20:23;4.93;;;2.37;;
5937;SDS011;2994;51.220;4.412;2022-09-09T03:22:50;2.57;;;2.30;;
5937;SDS011;2994;51.220;4.412;2022-09-09T03:25:16;6.03;;;2.20;;
5937;SDS011;2994;51.220;4.412;2022-09-09T03:27:42;2.97;;;2.67;;
5937;SDS011;2994;51.220;4.412;2022-09-09T03:30:08;3.63;;;2.50;;
5937;SDS011;2994;51.220;4.412;2022-09-09T03:32:34;5.60;;;2.57;;
5937;SDS011;2994;51.220;4.412;2022-09-09T03:34:59;4.47;;;2.30;;
5937;SDS011;2994;51.220;4.412;2022-09-09T03:37:25;4.33;;;2.27;;
5937;SDS011;2994;51.220;4.412;2022-09-09T03:39:50;5.53;;;2.30;;
5937;SDS011;2994;51.220;4.412;2022-09-09T03:42:16;2.70;;;2.50;;
5937;SDS011;2994;51.220;4.412;2022-09-09T03:44:45;4.47;;;3.03;;
5937;SDS011;2994;51.220;4.412;2022-09-09T03:47:18;6.90;;;2.47;;
5937;SDS011;2994;51.220;4.412;2022-09-09T03:49:45;5.10;;;2.43;;
5937;SDS011;2994;51.220;4.412;2022-09-09T03:52:10;5.27;;;2.90;;
5937;SDS011;2994;51.220;4.412;2022-09-09T03:54:36;3.63;;;2.27;;
5937;SDS011;2994;51.220;4.412;2022-09-09T03:57:02;4.33;;;2.80;;
5937;SDS011;2994;51.220;4.412;2022-09-09T03:59:27;3.70;;;2.10;;
5937;SDS011;2994;51.220;4.412;2022-09-09T04:01:53;11.73;;;2.93;;
5937;SDS011;2994;51.220;4.412;2022-09-09T04:04:19;8.57;;;3.13;;
5937;SDS011;2994;51.220;4.412;2022-09-09T04:06:45;4.10;;;2.73;;
5937;SDS011;2994;51.220;4.412;2022-09-09T04:09:11;3.63;;;2.20;;
5937;SDS011;2994;51.220;4.412;2022-09-09T04:11:36;7.17;;;2.93;;
5937;SDS011;2994;51.220;4.412;2022-09-09T04:14:02;6.53;;;2.70;;
5937;SDS011;2994;51.220;4.412;2022-09-09T04:16:30;3.10;;;2.10;;
5937;SDS011;2994;51.220;4.412;2022-09-09T04:18:57;4.57;;;2.70;;
5937;SDS011;2994;51.220;4.412;2022-09-09T04:21:23;7.07;;;2.90;;
5937;SDS011;2994;51.220;4.412;2022-09-09T04:23:48;4.80;;;2.53;;
5937;SDS011;2994;51.220;4.412;2022-09-09T04:26:14;3.87;;;2.00;;
5937;SDS011;2994;51.220;4.412;2022-09-09T04:28:39;10.13;;;2.63;;
5937;SDS011;2994;51.220;4.412;2022-09-09T04:31:05;6.50;;;2.70;;
5937;SDS011;2994;51.220;4.412;2022-09-09T04:33:32;7.80;;;2.73;;
5937;SDS011;2994;51.220;4.412;2022-09-09T04:35:58;4.90;;;2.77;;
5937;SDS011;2994;51.220;4.412;2022-09-09T04:38:23;4.23;;;2.43;;
5937;SDS011;2994;51.220;4.412;2022-09-09T04:40:49;6.10;;;3.00;;
5937;SDS011;2994;51.220;4.412;2022-09-09T04:43:17;7.67;;;2.30;;
5937;SDS011;2994;51.220;4.412;2022-09-09T04:45:44;4.63;;;2.53;;
5937;SDS011;2994;51.220;4.412;2022-09-09T04:48:13;5.57;;;2.70;;
5937;SDS011;2994;51.220;4.412;2022-09-09T04:50:38;3.53;;;2.43;;
5937;SDS011;2994;51.220;4.412;2022-09-09T04:53:05;4.20;;;2.40;;
5937;SDS011;2994;51.220;4.412;2022-09-09T04:55:31;4.53;;;2.23;;
5937;SDS011;2994;51.220;4.412;2022-09-09T04:58:02;6.73;;;3.87;;
5937;SDS011;2994;51.220;4.412;2022-09-09T05:00:30;3.60;;;2.57;;
5937;SDS011;2994;51.220;4.412;2022-09-09T05:02:56;2.73;;;2.20;;
5937;SDS011;2994;51.220;4.412;2022-09-09T05:05:22;4.40;;;2.17;;
5937;SDS011;2994;51.220;4.412;2022-09-09T05:07:47;5.50;;;2.30;;
5937;SDS011;2994;51.220;4.412;2022-09-09T05:10:13;6.17;;;2.67;;
5937;SDS011;2994;51.220;4.412;2022-09-09T05:12:40;7.63;;;2.50;;
5937;SDS011;2994;51.220;4.412;2022-09-09T05:15:05;4.90;;;2.40;;
5937;SDS011;2994;51.220;4.412;2022-09-09T05:17:32;6.97;;;2.37;;
5937;SDS011;2994;51.220;4.412;2022-09-09T05:19:57;8.33;;;3.20;;
5937;SDS011;2994;51.220;4.412;2022-09-09T05:22:23;5.03;;;2.63;;
5937;SDS011;2994;51.220;4.412;2022-09-09T05:24:49;5.30;;;2.63;;
5937;SDS011;2994;51.220;4.412;2022-09-09T05:27:18;3.63;;;2.03;;
5937;SDS011;2994;51.220;4.412;2022-09-09T05:29:44;4.83;;;2.43;;
5937;SDS011;2994;51.220;4.412;2022-09-09T05:32:10;6.10;;;2.43;;
5937;SDS011;2994;51.220;4.412;2022-09-09T05:34:36;3.77;;;2.60;;
5937;SDS011;2994;51.220;4.412;2022-09-09T05:37:02;6.63;;;2.80;;
5937;SDS011;2994;51.220;4.412;2022-09-09T05:39:29;6.93;;;2.67;;
5937;SDS011;2994;51.220;4.412;2022-09-09T05:41:55;5.67;;;2.90;;
5937;SDS011;2994;51.220;4.412;2022-09-09T05:44:20;5.47;;;2.50;;
5937;SDS011;2994;51.220;4.412;2022-09-09T05:46:48;6.17;;;2.67;;
5937;SDS011;2994;51.220;4.412;2022-09-09T05:49:14;6.50;;;3.00;;
5937;SDS011;2994;51.220;4.412;2022-09-09T05:51:40;6.90;;;2.97;;
5937;SDS011;2994;51.220;4.412;2022-09-09T05:54:07;5.27;;;2.50;;
5937;SDS011;2994;51.220;4.412;2022-09-09T05:56:33;5.30;;;2.50;;
5937;SDS011;2994;51.220;4.412;2022-09-09T05:58:59;6.17;;;3.10;;
5937;SDS011;2994;51.220;4.412;2022-09-09T06:01:34;6.13;;;3.20;;
5937;SDS011;2994;51.220;4.412;2022-09-09T06:04:01;6.00;;;3.10;;
5937;SDS011;2994;51.220;4.412;2022-09-09T06:06:30;5.17;;;2.80;;
5937;SDS011;2994;51.220;4.412;2022-09-09T06:08:57;4.60;;;2.80;;
5937;SDS011;2994;51.220;4.412;2022-09-09T06:11:27;6.60;;;2.37;;
5937;SDS011;2994;51.220;4.412;2022-09-09T06:13:57;4.77;;;2.80;;
5937;SDS011;2994;51.220;4.412;2022-09-09T06:16:24;8.97;;;3.10;;
5937;SDS011;2994;51.220;4.412;2022-09-09T06:18:52;6.50;;;2.87;;
5937;SDS011;2994;51.220;4.412;2022-09-09T06:21:22;9.30;;;3.37;;
5937;SDS011;2994;51.220;4.412;2022-09-09T06:23:49;4.13;;;2.40;;
5937;SDS011;2994;51.220;4.412;2022-09-09T06:26:20;7.73;;;2.97;;
5937;SDS011;2994;51.220;4.412;2022-09-09T06:28:49;5.20;;;3.37;;
5937;SDS011;2994;51.220;4.412;2022-09-09T06:31:16;4.30;;;2.73;;
5937;SDS011;2994;51.220;4.412;2022-09-09T06:33:46;6.13;;;2.90;;
5937;SDS011;2994;51.220;4.412;2022-09-09T06:36:16;3.60;;;2.23;;
5937;SDS011;2994;51.220;4.412;2022-09-09T06:38:46;4.03;;;2.50;;
5937;SDS011;2994;51.220;4.412;2022-09-09T06:41:12;10.37;;;3.50;;
5937;SDS011;2994;51.220;4.412;2022-09-09T06:43:39;5.10;;;3.00;;
5937;SDS011;2994;51.220;4.412;2022-09-09T06:46:09;10.47;;;2.93;;
5937;SDS011;2994;51.220;4.412;2022-09-09T06:48:36;5.20;;;2.50;;
5937;SDS011;2994;51.220;4.412;2022-09-09T06:53:34;3.53;;;2.70;;
5937;SDS011;2994;51.220;4.412;2022-09-09T06:56:01;6.80;;;3.40;;
5937;SDS011;2994;51.220;4.412;2022-09-09T06:58:27;6.87;;;2.70;;
5937;SDS011;2994;51.220;4.412;2022-09-09T07:01:01;10.90;;;3.37;;
5937;SDS011;2994;51.220;4.412;2022-09-09T07:03:27;5.70;;;2.60;;
5937;SDS011;2994;51.220;4.412;2022-09-09T07:05:53;4.80;;;2.80;;
5937;SDS011;2994;51.220;4.412;2022-09-09T07:08:21;6.27;;;2.70;;
5937;SDS011;2994;51.220;4.412;2022-09-09T07:10:46;9.63;;;3.10;;
5937;SDS011;2994;51.220;4.412;2022-09-09T07:13:12;7.03;;;3.00;;
5937;SDS011;2994;51.220;4.412;2022-09-09T07:15:40;6.80;;;2.90;;
5937;SDS011;2994;51.220;4.412;2022-09-09T07:18:06;6.47;;;2.90;;
5937;SDS011;2994;51.220;4.412;2022-09-09T07:20:33;6.20;;;2.60;;
5937;SDS011;2994;51.220;4.412;2022-09-09T07:22:58;4.70;;;2.10;;
5937;SDS011;2994;51.220;4.412;2022-09-09T07:25:24;9.37;;;2.77;;
5937;SDS011;2994;51.220;4.412;2022-09-09T07:27:53;6.87;;;2.70;;
5937;SDS011;2994;51.220;4.412;2022-09-09T07:30:19;8.70;;;2.83;;
5937;SDS011;2994;51.220;4.412;2022-09-09T07:32:45;6.90;;;3.40;;
5937;SDS011;2994;51.220;4.412;2022-09-09T07:35:10;7.37;;;2.80;;
5937;SDS011;2994;51.220;4.412;2022-09-09T07:37:37;8.87;;;3.47;;
5937;SDS011;2994;51.220;4.412;2022-09-09T07:40:02;5.27;;;2.87;;
5937;SDS011;2994;51.220;4.412;2022-09-09T07:42:30;12.60;;;3.60;;
5937;SDS011;2994;51.220;4.412;2022-09-09T07:44:55;5.27;;;2.83;;
5937;SDS011;2994;51.220;4.412;2022-09-09T07:47:21;6.80;;;3.27;;
5937;SDS011;2994;51.220;4.412;2022-09-09T07:49:46;6.97;;;3.10;;
5937;SDS011;2994;51.220;4.412;2022-09-09T07:52:14;7.00;;;2.70;;
5937;SDS011;2994;51.220;4.412;2022-09-09T07:54:40;8.23;;;2.87;;
5937;SDS011;2994;51.220;4.412;2022-09-09T07:57:06;7.33;;;2.70;;
5937;SDS011;2994;51.220;4.412;2022-09-09T07:59:32;4.83;;;2.90;;
5937;SDS011;2994;51.220;4.412;2022-09-09T08:01:58;6.30;;;3.00;;
5937;SDS011;2994;51.220;4.412;2022-09-09T08:04:24;4.67;;;2.70;;
5937;SDS011;2994;51.220;4.412;2022-09-09T08:06:55;5.40;;;3.50;;
5937;SDS011;2994;51.220;4.412;2022-09-09T08:09:22;4.93;;;2.97;;
5937;SDS011;2994;51.220;4.412;2022-09-09T08:11:53;10.20;;;3.10;;
5937;SDS011;2994;51.220;4.412;2022-09-09T08:14:19;4.90;;;2.70;;
5937;SDS011;2994;51.220;4.412;2022-09-09T08:16:46;4.43;;;2.40;;
5937;SDS011;2994;51.220;4.412;2022-09-09T08:19:13;4.73;;;2.00;;
5937;SDS011;2994;51.220;4.412;2022-09-09T08:21:40;5.57;;;2.97;;
5937;SDS011;2994;51.220;4.412;2022-09-09T08:24:07;4.07;;;2.50;;
5937;SDS011;2994;51.220;4.412;2022-09-09T08:26:36;7.00;;;2.57;;
5937;SDS011;2994;51.220;4.412;2022-09-09T08:29:04;9.20;;;4.10;;
5937;SDS011;2994;51.220;4.412;2022-09-09T08:31:35;4.00;;;2.60;;
5937;SDS011;2994;51.220;4.412;2022-09-09T08:34:02;5.70;;;2.33;;
5937;SDS011;2994;51.220;4.412;2022-09-09T08:36:29;9.50;;;2.70;;
5937;SDS011;2994;51.220;4.412;2022-09-09T08:38:58;4.03;;;2.30;;
5937;SDS011;2994;51.220;4.412;2022-09-09T08:41:30;5.37;;;2.70;;
5937;SDS011;2994;51.220;4.412;2022-09-09T08:52:41;5.00;;;2.67;;
5937;SDS011;2994;51.220;4.412;2022-09-09T08:55:24;5.03;;;3.03;;
5937;SDS011;2994;51.220;4.412;2022-09-09T08:57:52;3.10;;;2.40;;
5937;SDS011;2994;51.220;4.412;2022-09-09T09:00:20;4.00;;;2.00;;
5937;SDS011;2994;51.220;4.412;2022-09-09T09:11:26;3.83;;;1.90;;
5937;SDS011;2994;51.220;4.412;2022-09-09T09:13:56;7.63;;;2.20;;
5937;SDS011;2994;51.220;4.412;2022-09-09T09:16:34;7.07;;;3.13;;
5937;SDS011;2994;51.220;4.412;2022-09-09T09:19:03;10.67;;;4.47;;
5937;SDS011;2994;51.220;4.412;2022-09-09T09:24:04;5.23;;;2.20;;
5937;SDS011;2994;51.220;4.412;2022-09-09T09:26:36;4.87;;;2.60;;
5937;SDS011;2994;51.220;4.412;2022-09-09T09:29:15;4.50;;;2.47;;
5937;SDS011;2994;51.220;4.412;2022-09-09T09:31:45;7.60;;;2.63;;
5937;SDS011;2994;51.220;4.412;2022-09-09T09:34:20;5.57;;;2.50;;
5937;SDS011;2994;51.220;4.412;2022-09-09T09:36:52;5.63;;;2.27;;
5937;SDS011;2994;51.220;4.412;2022-09-09T09:41:50;5.23;;;2.40;;
5937;SDS011;2994;51.220;4.412;2022-09-09T09:44:49;7.43;;;2.37;;
5937;SDS011;2994;51.220;4.412;2022-09-09T09:47:12;7.03;;;2.77;;
5937;SDS011;2994;51.220;4.412;2022-09-09T09:49:38;8.43;;;2.50;;
5937;SDS011;2994;51.220;4.412;2022-09-09T09:52:05;2.37;;;1.80;;
5937;SDS011;2994;51.220;4.412;2022-09-09T09:54:33;4.63;;;2.67;;
5937;SDS011;2994;51.220;4.412;2022-09-09T09:57:10;5.43;;;2.20;;
5937;SDS011;2994;51.220;4.412;2022-09-09T09:59:37;4.40;;;2.70;;
5937;SDS011;2994;51.220;4.412;2022-09-09T10:04:42;2.90;;;2.27;;
5937;SDS011;2994;51.220;4.412;2022-09-09T10:07:11;6.20;;;2.60;;
5937;SDS011;2994;51.220;4.412;2022-09-09T10:09:38;4.53;;;2.37;;
5937;SDS011;2994;51.220;4.412;2022-09-09T10:20:11;4.70;;;2.17;;
5937;SDS011;2994;51.220;4.412;2022-09-09T10:22:50;3.80;;;2.20;;
5937;SDS011;2994;51.220;4.412;2022-09-09T10:30:42;5.00;;;2.53;;
5937;SDS011;2994;51.220;4.412;2022-09-09T10:33:32;3.63;;;2.30;;
5937;SDS011;2994;51.220;4.412;2022-09-09T10:47:40;5.30;;;2.30;;
5937;SDS011;2994;51.220;4.412;2022-09-09T10:55:47;4.43;;;2.30;;
5937;SDS011;2994;51.220;4.412;2022-09-09T10:58:27;3.63;;;2.07;;
5937;SDS011;2994;51.220;4.412;2022-09-09T11:01:02;4.40;;;2.17;;
5937;SDS011;2994;51.220;4.412;2022-09-09T11:03:37;3.53;;;2.27;;
5937;SDS011;2994;51.220;4.412;2022-09-09T11:06:06;3.57;;;2.13;;
5937;SDS011;2994;51.220;4.412;2022-09-09T11:08:37;3.37;;;2.40;;
5937;SDS011;2994;51.220;4.412;2022-09-09T11:11:06;5.27;;;2.63;;
5937;SDS011;2994;51.220;4.412;2022-09-09T11:13:58;3.17;;;2.30;;
5937;SDS011;2994;51.220;4.412;2022-09-09T11:16:39;2.37;;;1.80;;
5937;SDS011;2994;51.220;4.412;2022-09-09T11:19:33;3.80;;;1.90;;
5937;SDS011;2994;51.220;4.412;2022-09-09T11:22:06;3.13;;;2.30;;
5937;SDS011;2994;51.220;4.412;2022-09-09T11:24:50;2.90;;;2.40;;
5937;SDS011;2994;51.220;4.412;2022-09-09T11:30:26;3.83;;;1.83;;
5937;SDS011;2994;51.220;4.412;2022-09-09T11:38:50;3.07;;;2.20;;
5937;SDS011;2994;51.220;4.412;2022-09-09T11:41:18;3.30;;;1.67;;
5937;SDS011;2994;51.220;4.412;2022-09-09T11:43:49;2.70;;;1.97;;
5937;SDS011;2994;51.220;4.412;2022-09-09T11:46:17;4.13;;;1.73;;
5937;SDS011;2994;51.220;4.412;2022-09-09T11:49:00;4.00;;;2.53;;
5937;SDS011;2994;51.220;4.412;2022-09-09T11:51:28;3.57;;;2.07;;
5937;SDS011;2994;51.220;4.412;2022-09-09T11:53:59;3.50;;;1.67;;
5937;SDS011;2994;51.220;4.412;2022-09-09T11:59:25;4.63;;;1.60;;
5937;SDS011;2994;51.220;4.412;2022-09-09T12:04:26;3.43;;;2.23;;
5937;SDS011;2994;51.220;4.412;2022-09-09T12:07:05;2.70;;;1.73;;
5937;SDS011;2994;51.220;4.412;2022-09-09T12:09:58;4.73;;;1.67;;
5937;SDS011;2994;51.220;4.412;2022-09-09T12:12:32;2.07;;;1.23;;
5937;SDS011;2994;51.220;4.412;2022-09-09T12:17:44;3.27;;;1.97;;
5937;SDS011;2994;51.220;4.412;2022-09-09T12:20:13;4.07;;;2.37;;
5937;SDS011;2994;51.220;4.412;2022-09-09T12:22:45;3.60;;;1.73;;
5937;SDS011;2994;51.220;4.412;2022-09-09T12:30:49;2.63;;;2.00;;
5937;SDS011;2994;51.220;4.412;2022-09-09T12:33:23;2.00;;;1.80;;
5937;SDS011;2994;51.220;4.412;2022-09-09T12:35:53;4.00;;;1.97;;
5937;SDS011;2994;51.220;4.412;2022-09-09T12:38:32;4.57;;;1.90;;
5937;SDS011;2994;51.220;4.412;2022-09-09T12:41:01;5.40;;;1.60;;
5937;SDS011;2994;51.220;4.412;2022-09-09T12:43:26;2.70;;;1.87;;
5937;SDS011;2994;51.220;4.412;2022-09-09T12:45:57;5.63;;;2.20;;
5937;SDS011;2994;51.220;4.412;2022-09-09T12:48:58;3.20;;;1.83;;
5937;SDS011;2994;51.220;4.412;2022-09-09T12:51:30;3.50;;;1.97;;
5937;SDS011;2994;51.220;4.412;2022-09-09T12:53:57;3.80;;;2.10;;
5937;SDS011;2994;51.220;4.412;2022-09-09T12:56:25;3.00;;;1.90;;
5937;SDS011;2994;51.220;4.412;2022-09-09T12:58:54;3.40;;;1.73;;
5937;SDS011;2994;51.220;4.412;2022-09-09T13:01:25;3.50;;;2.30;;
5937;SDS011;2994;51.220;4.412;2022-09-09T13:04:00;2.33;;;2.13;;
5937;SDS011;2994;51.220;4.412;2022-09-09T13:06:29;3.53;;;1.80;;
5937;SDS011;2994;51.220;4.412;2022-09-09T13:08:57;3.57;;;1.67;;
5937;SDS011;2994;51.220;4.412;2022-09-09T13:11:46;5.00;;;1.90;;
5937;SDS011;2994;51.220;4.412;2022-09-09T13:14:18;2.47;;;1.90;;
5937;SDS011;2994;51.220;4.412;2022-09-09T13:16:57;3.27;;;2.03;;
5937;SDS011;2994;51.220;4.412;2022-09-09T13:19:25;4.20;;;1.93;;
5937;SDS011;2994;51.220;4.412;2022-09-09T13:21:53;3.57;;;1.93;;
5937;SDS011;2994;51.220;4.412;2022-09-09T13:24:32;2.80;;;2.03;;
5937;SDS011;2994;51.220;4.412;2022-09-09T13:27:00;2.97;;;2.10;;
5937;SDS011;2994;51.220;4.412;2022-09-09T13:29:50;3.10;;;1.60;;
5937;SDS011;2994;51.220;4.412;2022-09-09T13:32:20;3.00;;;1.87;;
5937;SDS011;2994;51.220;4.412;2022-09-09T13:34:57;2.97;;;1.80;;
5937;SDS011;2994;51.220;4.412;2022-09-09T13:37:26;2.53;;;1.77;;
5937;SDS011;2994;51.220;4.412;2022-09-09T13:39:52;2.17;;;1.73;;
5937;SDS011;2994;51.220;4.412;2022-09-09T13:42:24;3.73;;;1.87;;
5937;SDS011;2994;51.220;4.412;2022-09-09T13:44:55;3.73;;;2.27;;
5937;SDS011;2994;51.220;4.412;2022-09-09T13:47:26;3.03;;;1.93;;
5937;SDS011;2994;51.220;4.412;2022-09-09T13:49:56;2.60;;;1.37;;
5937;SDS011;2994;51.220;4.412;2022-09-09T13:52:21;2.50;;;1.43;;
5937;SDS011;2994;51.220;4.412;2022-09-09T13:54:50;1.53;;;1.43;;
5937;SDS011;2994;51.220;4.412;2022-09-09T13:57:23;2.57;;;1.50;;
5937;SDS011;2994;51.220;4.412;2022-09-09T13:59:50;2.87;;;1.60;;
5937;SDS011;2994;51.220;4.412;2022-09-09T14:02:17;1.80;;;1.43;;
5937;SDS011;2994;51.220;4.412;2022-09-09T14:04:43;2.10;;;1.53;;
5937;SDS011;2994;51.220;4.412;2022-09-09T14:07:10;2.33;;;1.30;;
5937;SDS011;2994;51.220;4.412;2022-09-09T14:09:37;4.60;;;2.10;;
5937;SDS011;2994;51.220;4.412;2022-09-09T14:12:04;2.10;;;1.77;;
5937;SDS011;2994;51.220;4.412;2022-09-09T14:14:30;2.30;;;1.50;;
5937;SDS011;2994;51.220;4.412;2022-09-09T14:16:55;3.17;;;1.60;;
5937;SDS011;2994;51.220;4.412;2022-09-09T14:19:21;2.80;;;1.83;;
5937;SDS011;2994;51.220;4.412;2022-09-09T14:21:46;3.60;;;1.30;;
5937;SDS011;2994;51.220;4.412;2022-09-09T14:24:11;5.83;;;2.00;;
5937;SDS011;2994;51.220;4.412;2022-09-09T14:26:37;2.10;;;1.27;;
5937;SDS011;2994;51.220;4.412;2022-09-09T14:29:03;2.67;;;1.57;;
5937;SDS011;2994;51.220;4.412;2022-09-09T14:31:28;2.37;;;1.83;;
5937;SDS011;2994;51.220;4.412;2022-09-09T14:33:54;7.20;;;2.20;;
5937;SDS011;2994;51.220;4.412;2022-09-09T14:36:19;4.10;;;2.90;;
5937;SDS011;2994;51.220;4.412;2022-09-09T14:38:45;2.60;;;1.60;;
5937;SDS011;2994;51.220;4.412;2022-09-09T14:41:15;2.93;;;1.30;;
5937;SDS011;2994;51.220;4.412;2022-09-09T14:43:42;2.43;;;1.60;;
5937;SDS011;2994;51.220;4.412;2022-09-09T14:46:08;3.43;;;2.60;;
5937;SDS011;2994;51.220;4.412;2022-09-09T14:48:36;3.93;;;2.60;;
5937;SDS011;2994;51.220;4.412;2022-09-09T14:51:08;2.53;;;1.60;;
5937;SDS011;2994;51.220;4.412;2022-09-09T14:53:42;3.33;;;2.30;;
5937;SDS011;2994;51.220;4.412;2022-09-09T14:58:38;1.90;;;1.50;;
5937;SDS011;2994;51.220;4.412;2022-09-09T15:01:05;2.70;;;1.60;;
5937;SDS011;2994;51.220;4.412;2022-09-09T15:03:31;2.80;;;1.93;;
5937;SDS011;2994;51.220;4.412;2022-09-09T15:05:57;8.07;;;4.03;;
5937;SDS011;2994;51.220;4.412;2022-09-09T15:08:23;8.40;;;3.50;;
5937;SDS011;2994;51.220;4.412;2022-09-09T15:10:49;5.90;;;3.07;;
5937;SDS011;2994;51.220;4.412;2022-09-09T15:13:15;3.47;;;2.50;;
5937;SDS011;2994;51.220;4.412;2022-09-09T15:15:43;5.10;;;3.77;;
5937;SDS011;2994;51.220;4.412;2022-09-09T15:18:09;10.03;;;6.23;;
5937;SDS011;2994;51.220;4.412;2022-09-09T15:20:34;4.90;;;3.67;;
5937;SDS011;2994;51.220;4.412;2022-09-09T15:23:02;3.20;;;2.90;;
5937;SDS011;2994;51.220;4.412;2022-09-09T15:25:28;4.03;;;3.00;;
5937;SDS011;2994;51.220;4.412;2022-09-09T15:27:53;6.30;;;4.23;;
5937;SDS011;2994;51.220;4.412;2022-09-09T15:30:18;5.03;;;3.40;;
5937;SDS011;2994;51.220;4.412;2022-09-09T15:32:44;4.80;;;4.40;;
5937;SDS011;2994;51.220;4.412;2022-09-09T15:35:09;3.97;;;3.07;;
5937;SDS011;2994;51.220;4.412;2022-09-09T15:37:35;5.67;;;3.60;;
5937;SDS011;2994;51.220;4.412;2022-09-09T15:40:00;5.30;;;3.50;;
5937;SDS011;2994;51.220;4.412;2022-09-09T15:42:26;5.13;;;3.83;;
5937;SDS011;2994;51.220;4.412;2022-09-09T15:44:51;5.77;;;3.00;;
5937;SDS011;2994;51.220;4.412;2022-09-09T15:47:17;5.63;;;3.43;;
5937;SDS011;2994;51.220;4.412;2022-09-09T15:49:42;4.47;;;2.67;;
5937;SDS011;2994;51.220;4.412;2022-09-09T15:52:09;5.13;;;2.97;;
5937;SDS011;2994;51.220;4.412;2022-09-09T15:54:36;3.33;;;2.63;;
5937;SDS011;2994;51.220;4.412;2022-09-09T15:57:05;5.53;;;3.03;;
5937;SDS011;2994;51.220;4.412;2022-09-09T15:59:31;3.40;;;2.73;;
5937;SDS011;2994;51.220;4.412;2022-09-09T16:01:58;4.10;;;3.00;;
5937;SDS011;2994;51.220;4.412;2022-09-09T16:04:24;5.47;;;3.87;;
5937;SDS011;2994;51.220;4.412;2022-09-09T16:06:51;6.33;;;5.10;;
5937;SDS011;2994;51.220;4.412;2022-09-09T16:09:21;2.80;;;2.40;;
5937;SDS011;2994;51.220;4.412;2022-09-09T16:11:46;2.90;;;2.70;;
5937;SDS011;2994;51.220;4.412;2022-09-09T16:14:13;3.00;;;2.80;;
5937;SDS011;2994;51.220;4.412;2022-09-09T16:16:40;4.53;;;2.60;;
5937;SDS011;2994;51.220;4.412;2022-09-09T16:19:07;2.80;;;2.60;;
5937;SDS011;2994;51.220;4.412;2022-09-09T16:21:55;2.67;;;2.47;;
5937;SDS011;2994;51.220;4.412;2022-09-09T16:24:20;4.63;;;3.13;;
5937;SDS011;2994;51.220;4.412;2022-09-09T16:26:46;8.20;;;5.10;;
5937;SDS011;2994;51.220;4.412;2022-09-09T16:29:13;5.23;;;3.70;;
5937;SDS011;2994;51.220;4.412;2022-09-09T16:31:40;3.37;;;3.07;;
5937;SDS011;2994;51.220;4.412;2022-09-09T16:34:07;5.20;;;3.60;;
5937;SDS011;2994;51.220;4.412;2022-09-09T16:36:34;4.40;;;3.67;;
5937;SDS011;2994;51.220;4.412;2022-09-09T16:39:02;4.50;;;3.40;;
5937;SDS011;2994;51.220;4.412;2022-09-09T16:41:30;4.53;;;3.77;;
5937;SDS011;2994;51.220;4.412;2022-09-09T16:43:56;4.93;;;4.47;;
5937;SDS011;2994;51.220;4.412;2022-09-09T16:46:24;5.90;;;3.90;;
5937;SDS011;2994;51.220;4.412;2022-09-09T16:48:50;4.57;;;3.53;;
5937;SDS011;2994;51.220;4.412;2022-09-09T16:51:19;6.13;;;4.13;;
5937;SDS011;2994;51.220;4.412;2022-09-09T16:53:49;5.00;;;4.50;;
5937;SDS011;2994;51.220;4.412;2022-09-09T16:56:16;5.40;;;4.90;;
5937;SDS011;2994;51.220;4.412;2022-09-09T16:58:43;7.10;;;5.30;;
5937;SDS011;2994;51.220;4.412;2022-09-09T17:01:14;5.40;;;4.90;;
5937;SDS011;2994;51.220;4.412;2022-09-09T17:03:39;8.67;;;6.53;;
5937;SDS011;2994;51.220;4.412;2022-09-09T17:06:14;5.33;;;4.83;;
5937;SDS011;2994;51.220;4.412;2022-09-09T17:08:40;5.57;;;4.00;;
5937;SDS011;2994;51.220;4.412;2022-09-09T17:11:13;3.80;;;3.40;;
5937;SDS011;2994;51.220;4.412;2022-09-09T17:13:43;6.70;;;4.23;;
5937;SDS011;2994;51.220;4.412;2022-09-09T17:16:09;4.40;;;3.90;;
5937;SDS011;2994;51.220;4.412;2022-09-09T17:18:36;5.93;;;5.33;;
5937;SDS011;2994;51.220;4.412;2022-09-09T17:21:02;4.87;;;4.40;;
5937;SDS011;2994;51.220;4.412;2022-09-09T17:23:29;6.23;;;4.63;;
5937;SDS011;2994;51.220;4.412;2022-09-09T17:25:55;7.80;;;4.50;;
5937;SDS011;2994;51.220;4.412;2022-09-09T17:28:22;7.00;;;4.83;;
5937;SDS011;2994;51.220;4.412;2022-09-09T17:30:51;5.60;;;4.27;;
5937;SDS011;2994;51.220;4.412;2022-09-09T17:33:17;4.60;;;3.90;;
5937;SDS011;2994;51.220;4.412;2022-09-09T17:35:45;4.63;;;3.87;;
5937;SDS011;2994;51.220;4.412;2022-09-09T17:38:16;5.07;;;4.67;;
5937;SDS011;2994;51.220;4.412;2022-09-09T17:40:41;5.73;;;4.10;;